createdAt,value
2023-04-09T00:02:12.747Z,36
2023-04-09T00:07:22.490Z,35
2023-04-09T00:12:30.883Z,34
2023-04-09T00:17:40.730Z,34
2023-04-09T00:22:49.110Z,33
2023-04-09T00:27:58.244Z,33
2023-04-09T00:33:07.989Z,33
2023-04-09T00:38:17.751Z,33
2023-04-09T00:43:27.519Z,33
2023-04-09T00:48:36.647Z,32
2023-04-09T00:53:45.125Z,32
2023-04-09T00:58:54.722Z,32
2023-04-09T01:04:04.003Z,32
2023-04-09T01:09:12.472Z,32
2023-04-09T01:14:20.957Z,32
2023-04-09T01:19:30.082Z,32
2023-04-09T01:24:38.556Z,32
2023-04-09T01:29:48.323Z,32
2023-04-09T01:34:58.078Z,32
2023-04-09T01:40:05.915Z,31
2023-04-09T01:45:15.691Z,32
2023-04-09T01:50:26.071Z,31
2023-04-09T01:55:35.196Z,31
2023-04-09T02:00:43.671Z,31
2023-04-09T02:05:52.782Z,31
2023-04-09T02:11:00.644Z,31
2023-04-09T02:16:09.906Z,31
2023-04-09T02:21:18.883Z,32
2023-04-09T02:26:28.655Z,32
2023-04-09T02:31:38.392Z,32
2023-04-09T02:36:49.441Z,32
2023-04-09T02:41:59.211Z,32
2023-04-09T02:47:08.947Z,31
2023-04-09T02:52:18.706Z,31
2023-04-09T02:57:28.488Z,31
2023-04-09T03:02:37.390Z,32
2023-04-09T03:07:47.419Z,31
2023-04-09T03:12:57.767Z,31
2023-04-09T03:18:08.945Z,31
2023-04-09T03:28:27.801Z,31
2023-04-09T03:33:36.800Z,31
2023-04-09T03:38:47.297Z,31
2023-04-09T03:43:55.812Z,31
2023-04-09T03:49:04.906Z,31
2023-04-09T03:54:12.658Z,31
2023-04-09T03:59:21.115Z,31
2023-04-09T04:04:30.512Z,31
2023-04-09T04:09:40.198Z,31
2023-04-09T04:14:49.768Z,31
2023-04-09T04:19:59.515Z,31
2023-04-09T04:25:08.019Z,31
2023-04-09T04:30:17.772Z,31
2023-04-09T04:35:26.295Z,31
2023-04-09T04:40:35.352Z,31
2023-04-09T04:45:45.859Z,31
2023-04-09T04:50:56.152Z,31
2023-04-09T04:56:04.664Z,31
2023-04-09T05:01:14.549Z,31
2023-04-09T05:06:24.793Z,31
2023-04-09T05:11:33.936Z,31
2023-04-09T05:16:41.884Z,31
2023-04-09T05:21:51.521Z,31
2023-04-09T05:27:00.656Z,31
2023-04-09T05:32:10.459Z,31
2023-04-09T05:37:18.873Z,31
2023-04-09T05:42:28.000Z,31
2023-04-09T05:47:36.519Z,31
2023-04-09T05:52:44.962Z,31
2023-04-09T05:57:54.083Z,31
2023-04-09T06:03:03.549Z,31
2023-04-09T06:08:12.314Z,32
2023-04-09T06:13:21.504Z,32
2023-04-09T06:18:29.936Z,32
2023-04-09T06:23:40.343Z,32
2023-04-09T06:28:50.090Z,32
2023-04-09T06:33:59.845Z,32
2023-04-09T06:39:08.308Z,33
2023-04-09T06:44:17.432Z,33
2023-04-09T06:49:27.852Z,33
2023-04-09T06:54:37.614Z,34
2023-04-09T06:59:47.343Z,34
2023-04-09T07:04:56.500Z,33
2023-04-09T07:10:06.517Z,33
2023-04-09T07:15:15.437Z,31
2023-04-09T07:20:24.472Z,30
2023-04-09T07:25:34.559Z,30
2023-04-09T07:30:42.103Z,31
2023-04-09T07:35:50.670Z,31
2023-04-09T07:41:00.961Z,31
2023-04-09T07:46:09.641Z,31
2023-04-09T07:51:17.894Z,32
2023-04-09T07:56:28.327Z,32
2023-04-09T08:01:36.988Z,32
2023-04-09T08:06:46.562Z,32
2023-04-09T08:11:55.057Z,32
2023-04-09T08:17:04.912Z,33
2023-04-09T08:22:13.928Z,33
2023-04-09T08:27:23.042Z,34
2023-04-09T08:32:32.342Z,33
2023-04-09T08:37:41.294Z,33
2023-04-09T08:42:51.037Z,33
2023-04-09T08:47:59.813Z,33
2023-04-09T08:53:08.642Z,33
2023-04-09T08:58:18.397Z,33
2023-04-09T09:03:28.378Z,33
2023-04-09T09:08:35.984Z,34
2023-04-09T09:13:44.485Z,35
2023-04-09T09:18:54.954Z,35
2023-04-09T09:24:02.705Z,35
2023-04-09T09:29:11.835Z,35
2023-04-09T09:34:20.349Z,35
2023-04-09T09:39:28.795Z,34
2023-04-09T09:44:37.908Z,34
2023-04-09T09:49:48.324Z,33
2023-04-09T09:54:56.794Z,33
2023-04-09T10:00:06.568Z,33
2023-04-09T10:05:15.681Z,32
2023-04-09T10:10:25.467Z,32
2023-04-09T10:15:34.697Z,32
2023-04-09T10:20:44.320Z,32
2023-04-09T10:25:53.452Z,32
2023-04-09T10:31:03.316Z,32
2023-04-09T10:36:13.150Z,32
2023-04-09T10:41:22.747Z,32
2023-04-09T10:46:31.968Z,31
2023-04-09T10:51:41.599Z,32
2023-04-09T10:56:50.713Z,32
2023-04-09T11:01:59.482Z,32
2023-04-09T11:07:09.608Z,32
2023-04-09T11:12:19.372Z,32
2023-04-09T11:17:27.929Z,31
2023-04-09T11:22:38.246Z,32
2023-04-09T11:27:48.001Z,32
2023-04-09T11:32:57.951Z,32
2023-04-09T11:38:06.228Z,32
2023-04-09T11:43:16.047Z,33
2023-04-09T11:48:25.276Z,32
2023-04-09T11:53:34.868Z,32
2023-04-09T11:58:43.362Z,32
2023-04-09T12:03:52.418Z,32
2023-04-09T12:09:01.591Z,31
2023-04-09T12:14:10.119Z,31
2023-04-09T12:21:25.317Z,32
2023-04-09T12:26:35.670Z,31
2023-04-09T12:31:45.606Z,32
2023-04-09T12:36:55.828Z,32
2023-04-09T12:42:06.245Z,32
2023-04-09T12:47:16.653Z,32
2023-04-09T12:52:26.385Z,32
2023-04-09T12:57:37.438Z,32
2023-04-09T13:02:47.694Z,31
2023-04-09T13:07:57.587Z,31
2023-04-09T13:13:06.082Z,32
2023-04-09T13:18:15.232Z,32
2023-04-09T13:23:23.043Z,32
2023-04-09T13:28:32.153Z,31
2023-04-09T13:33:41.274Z,31
2023-04-09T13:38:51.170Z,31
2023-04-09T13:44:00.199Z,31
2023-04-09T13:49:09.921Z,31
2023-04-09T13:54:19.670Z,31
2023-04-09T13:59:28.812Z,31
2023-04-09T14:04:38.654Z,31
2023-04-09T14:09:47.687Z,30
2023-04-09T14:14:56.810Z,30
2023-04-09T14:20:05.948Z,30
2023-04-09T14:25:14.415Z,30
2023-04-09T14:30:24.145Z,30
2023-04-09T14:35:34.084Z,30
2023-04-09T14:40:43.029Z,30
2023-04-09T14:45:51.506Z,29
2023-04-09T14:51:01.350Z,29
2023-04-09T14:56:09.749Z,29
2023-04-09T15:01:19.599Z,29
2023-04-09T15:06:28.622Z,29
2023-04-09T15:11:38.382Z,29
2023-04-09T15:16:47.058Z,30
2023-04-09T15:21:56.632Z,30
2023-04-09T15:27:07.041Z,30
2023-04-09T15:32:16.182Z,30
2023-04-09T15:37:25.281Z,30
2023-04-09T15:42:33.118Z,30
2023-04-09T15:47:42.344Z,30
2023-04-09T15:52:51.997Z,30
2023-04-09T15:58:01.770Z,29
2023-04-09T16:03:10.243Z,29
2023-04-09T16:08:20.648Z,30
2023-04-09T16:13:29.118Z,30
2023-04-09T16:18:37.606Z,30
2023-04-09T16:23:47.356Z,30
2023-04-09T16:28:57.113Z,30
2023-04-09T16:34:05.699Z,30
2023-04-09T16:39:14.071Z,30
2023-04-09T16:44:23.829Z,30
2023-04-09T16:49:33.585Z,29
2023-04-09T16:54:42.063Z,29
2023-04-09T16:59:50.547Z,30
2023-04-09T17:05:00.339Z,30
2023-04-09T17:10:08.770Z,30
2023-04-09T17:15:19.205Z,30
2023-04-09T17:20:27.670Z,30
2023-04-09T17:25:36.809Z,30
2023-04-09T17:30:45.408Z,30
2023-04-09T17:35:55.758Z,29
2023-04-09T17:41:07.854Z,30
2023-04-09T17:46:14.756Z,30
2023-04-09T17:51:24.327Z,29
2023-04-09T17:56:34.074Z,29
2023-04-09T18:01:44.190Z,29
2023-04-09T18:06:52.309Z,29
2023-04-09T18:12:01.498Z,29
2023-04-09T18:17:11.200Z,29
2023-04-09T18:22:19.695Z,29
2023-04-09T18:27:29.433Z,28
2023-04-09T18:32:38.046Z,29
2023-04-09T18:37:47.666Z,28
2023-04-09T18:42:56.813Z,28
2023-04-09T18:48:06.696Z,28
2023-04-09T18:53:15.673Z,28
2023-04-09T18:58:24.169Z,28
2023-04-09T19:03:33.932Z,28
2023-04-09T19:08:42.401Z,28
2023-04-09T19:13:52.153Z,28
2023-04-09T19:19:02.012Z,28
2023-04-09T19:24:11.031Z,28
2023-04-09T19:29:20.156Z,28
2023-04-09T19:34:29.298Z,28
2023-04-09T19:39:39.047Z,28
2023-04-09T19:44:47.520Z,28
2023-04-09T19:49:57.907Z,28
2023-04-09T19:55:06.406Z,28
2023-04-09T20:00:16.175Z,28
2023-04-09T20:05:24.646Z,28
2023-04-09T20:10:34.414Z,28
2023-04-09T20:15:44.160Z,28
2023-04-09T20:20:53.940Z,28
2023-04-09T20:26:04.968Z,28
2023-04-09T20:31:14.724Z,28
2023-04-09T20:36:24.474Z,28
2023-04-09T20:41:32.951Z,28
2023-04-09T20:46:42.732Z,28
2023-04-09T20:51:51.897Z,28
2023-04-09T20:57:00.358Z,28
2023-04-09T21:02:10.465Z,28
2023-04-09T21:07:19.842Z,28
2023-04-09T21:12:29.596Z,28
2023-04-09T21:17:38.220Z,28
2023-04-09T21:22:45.917Z,28
2023-04-09T21:27:54.434Z,28
2023-04-09T21:33:03.670Z,28
2023-04-09T21:38:13.317Z,28
2023-04-09T21:43:21.153Z,28
2023-04-09T21:48:30.899Z,28
2023-04-09T21:53:40.680Z,28
2023-04-09T21:58:49.119Z,28
2023-04-09T22:03:57.838Z,28
2023-04-09T22:09:06.784Z,28
2023-04-09T22:14:15.212Z,28
2023-04-09T22:19:23.681Z,28
2023-04-09T22:24:32.784Z,28
2023-04-09T22:29:42.593Z,28
2023-04-09T22:34:51.677Z,28
2023-04-09T22:40:01.442Z,28
2023-04-09T22:45:11.303Z,28
2023-04-09T22:50:19.685Z,28
2023-04-09T22:55:28.809Z,28
2023-04-09T23:00:37.902Z,28
2023-04-09T23:05:47.696Z,28
2023-04-09T23:10:56.184Z,28
2023-04-09T23:16:04.732Z,28
2023-04-09T23:21:13.161Z,28
2023-04-09T23:26:22.909Z,28
2023-04-09T23:31:32.866Z,28
2023-04-09T23:36:42.424Z,29
2023-04-09T23:41:52.170Z,29
2023-04-09T23:47:01.476Z,29
2023-04-09T23:52:10.392Z,28
2023-04-09T23:57:20.163Z,28
